Time;durP1;ratioP1;P1;durP2;ratioP2;P2;SDS_P1;SDS_P2;PMS_P1;PMS_P2;Temp;Humidity;BMP_temperature;BMP_pressure;BME280_temperature;BME280_humidity;BME280_pressure;Samples;Min_cycle;Max_cycle;Signal;HPM_P1;HPM_P2
2023/02/06 00:01:01;;;;;;;7.18;4.47;;;5.80;99.90;;;;;;9947985;28;20046;-63
2023/02/06 00:05:57;;;;;;;7.50;3.88;;;5.80;99.90;;;;;;9949860;28;20567;-63
2023/02/06 00:10:47;;;;;;;6.80;4.05;;;5.80;99.90;;;;;;9936025;28;20038;-62
2023/02/06 00:15:38;;;;;;;8.45;5.40;;;5.80;99.90;;;;;;9943332;28;20098;-64
2023/02/06 00:20:28;;;;;;;8.32;3.90;;;5.80;99.90;;;;;;9940692;28;20544;-65
2023/02/06 00:25:19;;;;;;;6.72;4.03;;;5.80;99.90;;;;;;9941415;28;20070;-65
2023/02/06 00:30:10;;;;;;;6.57;4.10;;;5.70;99.90;;;;;;9940741;28;20046;-64
2023/02/06 00:35:01;;;;;;;7.75;4.38;;;5.80;99.90;;;;;;9935253;28;20136;-63
2023/02/06 00:39:51;;;;;;;6.32;3.70;;;5.80;99.90;;;;;;9939408;28;20476;-64
2023/02/06 00:44:42;;;;;;;5.07;3.70;;;5.80;99.90;;;;;;9941453;28;20038;-64
2023/02/06 00:49:33;;;;;;;8.18;4.53;;;5.70;99.90;;;;;;9940175;28;20501;-64
2023/02/06 00:54:23;;;;;;;5.47;3.50;;;5.80;99.90;;;;;;9940099;28;20023;-65
2023/02/06 00:59:14;;;;;;;5.80;3.30;;;5.90;99.90;;;;;;9939642;28;20035;-62
2023/02/06 01:04:04;;;;;;;6.45;3.50;;;6.00;99.90;;;;;;9939865;28;20065;-62
2023/02/06 01:08:55;;;;;;;5.68;3.95;;;6.00;99.90;;;;;;9950883;28;20027;-62
2023/02/06 01:13:46;;;;;;;6.00;3.60;;;5.80;99.90;;;;;;9914587;28;20055;-63
2023/02/06 01:18:38;;;;;;;6.13;3.40;;;5.70;99.90;;;;;;9949828;28;20054;-63
2023/02/06 01:23:28;;;;;;;6.13;3.25;;;5.60;99.90;;;;;;9928384;28;20031;-63
2023/02/06 01:28:19;;;;;;;4.90;3.22;;;5.60;99.90;;;;;;9946419;28;20030;-62
2023/02/06 01:33:10;;;;;;;8.65;3.90;;;5.50;99.90;;;;;;9946160;28;20031;-62
2023/02/06 01:38:00;;;;;;;6.13;3.35;;;5.40;99.90;;;;;;9946702;28;20456;-62
2023/02/06 01:42:51;;;;;;;6.75;3.35;;;5.40;99.90;;;;;;9946732;28;20038;-62
2023/02/06 01:47:41;;;;;;;5.65;3.45;;;5.30;99.90;;;;;;9945899;28;20034;-61
2023/02/06 01:52:32;;;;;;;5.25;2.72;;;5.40;99.90;;;;;;9945419;28;20034;-63
2023/02/06 01:57:24;;;;;;;4.15;3.10;;;5.40;99.90;;;;;;9945699;28;20034;-64
2023/02/06 02:02:15;;;;;;;5.60;3.08;;;5.30;99.90;;;;;;9945013;28;20022;-63
2023/02/06 02:07:18;;;;;;;5.80;3.40;;;5.30;99.90;;;;;;9957583;28;20336;-65
2023/02/06 02:12:09;;;;;;;8.27;4.47;;;5.20;99.90;;;;;;9946072;28;20129;-65
2023/02/06 02:16:59;;;;;;;6.22;3.05;;;5.20;99.90;;;;;;9957051;28;20106;-63
2023/02/06 02:22:08;;;;;;;5.47;3.53;;;5.20;99.90;;;;;;9945074;28;20030;-62
2023/02/06 02:27:23;;;;;;;6.00;3.92;;;5.10;99.90;;;;;;9926240;28;20119;-62
2023/02/06 02:32:21;;;;;;;6.18;3.20;;;5.10;99.90;;;;;;9943601;28;20374;-63
2023/02/06 02:37:36;;;;;;;6.18;3.63;;;5.00;99.90;;;;;;9944171;28;20034;-63
2023/02/06 02:42:45;;;;;;;6.38;4.00;;;4.90;99.90;;;;;;9925721;28;20373;-63
2023/02/06 02:48:03;;;;;;;6.88;4.32;;;4.80;99.90;;;;;;9943744;28;20031;-63
2023/02/06 02:52:54;;;;;;;8.35;4.05;;;4.80;99.90;;;;;;9925972;28;20033;-62
2023/02/06 02:57:47;;;;;;;8.90;4.18;;;4.70;99.90;;;;;;9942774;28;20336;-63
2023/02/06 03:02:40;;;;;;;7.85;4.55;;;4.70;99.90;;;;;;9942252;28;20106;-63
2023/02/06 03:08:02;;;;;;;5.25;3.30;;;4.80;99.90;;;;;;9954887;28;20536;-63
2023/02/06 03:13:07;;;;;;;6.57;3.67;;;4.80;99.90;;;;;;9924404;28;20054;-63
2023/02/06 03:18:10;;;;;;;4.50;2.85;;;4.70;99.90;;;;;;9955310;28;20238;-62
2023/02/06 03:23:03;;;;;;;6.63;2.88;;;4.70;99.90;;;;;;9941435;28;20043;-63
2023/02/06 03:27:54;;;;;;;5.20;3.00;;;4.70;99.90;;;;;;9942388;28;20027;-63
2023/02/06 03:32:48;;;;;;;5.82;3.75;;;4.60;99.90;;;;;;9941594;28;20035;-65
2023/02/06 03:37:39;;;;;;;3.38;2.33;;;4.60;99.90;;;;;;9941777;28;20481;-62
2023/02/06 03:42:32;;;;;;;6.45;3.75;;;4.60;99.90;;;;;;9941459;28;20078;-62
2023/02/06 03:47:25;;;;;;;6.80;3.90;;;4.70;99.90;;;;;;9923596;28;20023;-63
2023/02/06 03:52:22;;;;;;;6.25;3.13;;;4.70;99.90;;;;;;9940972;28;20235;-61
2023/02/06 03:57:18;;;;;;;4.78;3.13;;;4.60;99.90;;;;;;9923332;28;20110;-62
2023/02/06 04:02:09;;;;;;;;;;;4.60;99.90;;;;;;9940063;28;20026;-62
2023/02/06 04:07:22;;;;;;;5.10;3.08;;;4.50;99.90;;;;;;9941519;28;19914;-64
2023/02/06 04:12:14;;;;;;;6.43;3.20;;;4.50;99.90;;;;;;9935427;28;20043;-62
2023/02/06 04:17:05;;;;;;;6.45;3.30;;;4.50;99.90;;;;;;9939545;28;20078;-62
2023/02/06 04:21:56;;;;;;;5.25;3.42;;;4.40;99.90;;;;;;9928115;28;20062;-61
2023/02/06 04:26:47;;;;;;;4.90;3.03;;;4.40;99.90;;;;;;9940491;28;20360;-63
2023/02/06 04:31:39;;;;;;;6.20;3.42;;;4.40;99.90;;;;;;9941346;28;20029;-63
2023/02/06 04:36:30;;;;;;;7.93;4.38;;;4.30;99.90;;;;;;9941598;28;20525;-62
2023/02/06 04:41:20;;;;;;;10.52;5.07;;;4.20;99.90;;;;;;9942151;28;20046;-64
2023/02/06 04:46:11;;;;;;;5.28;3.65;;;4.20;99.90;;;;;;9924968;28;20019;-63
2023/02/06 04:51:02;;;;;;;6.97;3.45;;;4.10;99.90;;;;;;9925193;28;20037;-63
2023/02/06 04:55:55;;;;;;;8.65;4.97;;;4.00;99.90;;;;;;9926240;28;20533;-61
2023/02/06 05:00:45;;;;;;;8.30;4.30;;;4.00;99.90;;;;;;9948708;28;20189;-65
2023/02/06 05:05:36;;;;;;;11.95;5.22;;;3.90;99.90;;;;;;9960752;28;20150;-64
2023/02/06 05:10:26;;;;;;;8.70;4.65;;;4.00;99.90;;;;;;9949210;28;20438;-64
2023/02/06 05:15:17;;;;;;;10.13;4.82;;;3.90;99.90;;;;;;9958234;28;20039;-64
2023/02/06 05:20:08;;;;;;;10.52;5.05;;;3.90;99.90;;;;;;9946979;28;20122;-64
2023/02/06 05:24:59;;;;;;;10.55;4.57;;;3.90;99.90;;;;;;9947107;28;20086;-65
2023/02/06 05:29:49;;;;;;;8.52;4.70;;;3.80;99.90;;;;;;9946925;28;20085;-64
2023/02/06 05:34:40;;;;;;;8.98;4.68;;;3.70;99.90;;;;;;9946309;28;20477;-64
2023/02/06 05:39:31;;;;;;;8.95;4.55;;;3.70;99.90;;;;;;9946057;28;20039;-63
2023/02/06 05:44:21;;;;;;;9.50;4.35;;;3.70;99.90;;;;;;9928985;28;20019;-64
2023/02/06 05:49:12;;;;;;;10.50;4.82;;;3.60;99.90;;;;;;9947057;28;20031;-63
2023/02/06 05:54:03;;;;;;;9.18;4.88;;;3.60;99.90;;;;;;9931166;28;20485;-63
2023/02/06 05:58:53;;;;;;;12.07;4.75;;;3.50;99.90;;;;;;9945801;28;20046;-62
2023/02/06 06:03:44;;;;;;;10.77;5.22;;;3.50;99.90;;;;;;9941928;28;20493;-63
2023/02/06 06:08:35;;;;;;;8.40;4.70;;;3.50;99.90;;;;;;9945054;28;20030;-62
2023/02/06 06:13:25;;;;;;;9.82;5.93;;;3.50;99.90;;;;;;9943591;28;20074;-63
2023/02/06 06:18:17;;;;;;;9.23;5.25;;;3.50;99.90;;;;;;9956154;28;20054;-62
2023/02/06 06:23:07;;;;;;;12.55;5.70;;;3.50;99.90;;;;;;9943814;28;20541;-62
2023/02/06 06:27:58;;;;;;;10.88;6.13;;;3.40;99.90;;;;;;9944497;28;20114;-63
2023/02/06 06:32:48;;;;;;;12.60;6.18;;;3.40;99.90;;;;;;9942876;28;20146;-62
2023/02/06 06:37:39;;;;;;;12.40;5.88;;;3.50;99.90;;;;;;9938851;28;20381;-62
2023/02/06 06:42:29;;;;;;;9.50;5.38;;;3.40;99.90;;;;;;9943666;28;20068;-63
2023/02/06 06:47:20;;;;;;;12.27;6.10;;;3.30;99.90;;;;;;9943010;28;20482;-63
2023/02/06 06:52:11;;;;;;;10.98;6.05;;;3.40;99.90;;;;;;9943525;28;20023;-62
2023/02/06 06:57:01;;;;;;;11.75;5.47;;;3.40;99.90;;;;;;9942999;28;20390;-62
2023/02/06 07:01:52;;;;;;;22.25;7.85;;;3.30;99.90;;;;;;9942027;28;20409;-63
2023/02/06 07:06:43;;;;;;;12.25;5.65;;;3.30;99.90;;;;;;9954685;28;20042;-63
2023/02/06 07:11:33;;;;;;;13.13;6.75;;;3.30;99.90;;;;;;9942448;28;20031;-63
2023/02/06 07:16:24;;;;;;;12.23;6.13;;;3.30;99.90;;;;;;9952722;28;20046;-63
2023/02/06 07:21:14;;;;;;;12.57;7.18;;;3.40;99.90;;;;;;9941552;28;20074;-63
2023/02/06 07:26:05;;;;;;;11.90;6.40;;;3.40;99.90;;;;;;9942738;28;20479;-63
2023/02/06 07:31:04;;;;;;;11.60;6.22;;;3.40;99.90;;;;;;9941959;28;20037;-64
2023/02/06 07:35:55;;;;;;;11.70;6.47;;;3.40;99.90;;;;;;9941888;28;20157;-63
2023/02/06 07:40:45;;;;;;;15.88;6.45;;;3.30;99.90;;;;;;9933967;28;20870;-62
2023/02/06 07:45:36;;;;;;;13.43;6.65;;;3.40;99.90;;;;;;9937854;28;20417;-65
2023/02/06 07:50:27;;;;;;;12.13;5.95;;;3.40;99.90;;;;;;9940881;28;20023;-61
2023/02/06 07:55:17;;;;;;;16.98;7.55;;;3.50;99.90;;;;;;9939947;28;20199;-62
2023/02/06 08:00:09;;;;;;;13.52;6.55;;;3.50;99.90;;;;;;9938644;28;20042;-63
2023/02/06 08:04:59;;;;;;;17.77;8.93;;;3.50;99.90;;;;;;9940331;28;20130;-63
2023/02/06 08:09:50;;;;;;;13.93;7.07;;;3.60;99.90;;;;;;9937662;28;20458;-61
2023/02/06 08:14:44;;;;;;;11.57;7.13;;;3.60;99.90;;;;;;9940941;28;20035;-62
2023/02/06 08:19:35;;;;;;;13.15;6.85;;;3.70;99.90;;;;;;9932078;28;20039;-61
2023/02/06 08:24:26;;;;;;;12.85;6.60;;;3.70;99.90;;;;;;9938630;28;20059;-62
2023/02/06 08:29:17;;;;;;;15.07;6.97;;;3.70;99.90;;;;;;9940004;28;20109;-64
2023/02/06 08:34:12;;;;;;;20.23;7.53;;;3.80;99.90;;;;;;9944731;28;20037;-63
2023/02/06 08:39:04;;;;;;;11.60;6.63;;;3.80;99.90;;;;;;9923975;28;20410;-63
2023/02/06 08:43:57;;;;;;;13.88;8.00;;;3.90;99.90;;;;;;9947966;28;20023;-64
2023/02/06 08:48:48;;;;;;;15.35;6.68;;;3.90;99.90;;;;;;9947423;28;20022;-66
2023/02/06 08:53:39;;;;;;;13.90;6.55;;;4.10;99.90;;;;;;9946968;28;20019;-65
2023/02/06 08:58:30;;;;;;;17.05;7.43;;;4.20;99.90;;;;;;9942855;28;20073;-64
2023/02/06 09:03:21;;;;;;;14.40;8.05;;;4.20;99.90;;;;;;9945793;28;20362;-62
2023/02/06 09:08:12;;;;;;;13.75;7.18;;;4.30;99.90;;;;;;9947591;28;20026;-61
2023/02/06 09:13:03;;;;;;;13.18;7.32;;;4.50;99.90;;;;;;9945948;28;20045;-62
2023/02/06 09:17:53;;;;;;;15.65;6.63;;;4.40;99.90;;;;;;9946374;28;20152;-63
2023/02/06 09:22:44;;;;;;;13.82;7.60;;;4.50;99.90;;;;;;9944408;28;20078;-64
2023/02/06 09:27:36;;;;;;;13.55;7.00;;;4.60;99.90;;;;;;9945659;28;20477;-63
2023/02/06 09:32:26;;;;;;;12.55;6.47;;;4.60;99.90;;;;;;9945413;28;20027;-64
2023/02/06 09:37:17;;;;;;;13.38;7.72;;;4.80;99.90;;;;;;9945023;28;20117;-63
2023/02/06 09:42:29;;;;;;;10.82;6.55;;;4.90;99.90;;;;;;9944755;28;20412;-65
2023/02/06 09:47:30;;;;;;;14.40;6.82;;;5.00;99.90;;;;;;9945226;28;20023;-63
2023/02/06 09:52:55;;;;;;;11.82;6.90;;;5.00;99.90;;;;;;9945935;28;20028;-65
2023/02/06 09:58:01;;;;;;;15.43;7.10;;;5.20;99.90;;;;;;9944404;28;20437;-64
2023/02/06 10:03:21;;;;;;;8.73;5.20;;;5.40;99.90;;;;;;9943787;28;20513;-65
2023/02/06 10:08:29;;;;;;;11.18;4.90;;;5.60;99.90;;;;;;9917344;28;20074;-62
2023/02/06 10:13:32;;;;;;;7.25;4.53;;;5.70;99.90;;;;;;9928858;28;20129;-62
2023/02/06 10:18:25;;;;;;;6.47;3.75;;;5.80;99.90;;;;;;9944368;28;20035;-60
2023/02/06 10:23:31;;;;;;;4.65;2.60;;;5.80;99.90;;;;;;9940932;28;20129;-63
2023/02/06 10:28:28;;;;;;;6.53;3.40;;;5.80;99.90;;;;;;9942911;28;20030;-64
2023/02/06 10:33:35;;;;;;;3.22;1.98;;;5.90;99.90;;;;;;9940937;28;20089;-63
2023/02/06 10:38:37;;;;;;;5.95;2.70;;;6.00;99.90;;;;;;9942840;28;20046;-63
2023/02/06 10:43:58;;;;;;;4.68;2.72;;;6.10;99.90;;;;;;9941850;28;20034;-62
2023/02/06 10:49:09;;;;;;;7.63;4.10;;;6.20;99.90;;;;;;9940151;28;20053;-63
2023/02/06 10:54:10;;;;;;;4.18;2.55;;;6.30;99.90;;;;;;9942466;28;20120;-65
2023/02/06 10:59:12;;;;;;;6.47;2.72;;;6.30;99.90;;;;;;9935286;28;20206;-62
2023/02/06 11:04:29;;;;;;;5.13;2.92;;;6.40;99.90;;;;;;9941171;28;20019;-61
2023/02/06 11:09:20;;;;;;;5.85;3.40;;;6.50;99.90;;;;;;9885873;28;20086;-63
2023/02/06 11:14:18;;;;;;;4.35;3.05;;;6.50;99.90;;;;;;9942761;28;20409;-62
2023/02/06 11:19:40;;;;;;;5.93;3.05;;;6.80;99.90;;;;;;9941544;28;20034;-64
2023/02/06 11:24:32;;;;;;;6.03;3.78;;;7.10;99.90;;;;;;9931878;28;20019;-64
2023/02/06 11:29:44;;;;;;;7.10;3.83;;;6.70;99.90;;;;;;9936712;28;20129;-63
2023/02/06 11:34:51;;;;;;;13.65;5.30;;;6.20;99.90;;;;;;9942381;28;20481;-63
2023/02/06 11:39:42;;;;;;;6.70;4.00;;;6.00;99.90;;;;;;9942699;28;20074;-62
2023/02/06 11:44:44;;;;;;;8.55;4.55;;;6.10;99.90;;;;;;9942583;28;20031;-63
2023/02/06 11:49:34;;;;;;;7.45;3.55;;;6.40;99.90;;;;;;9941085;28;20035;-64
2023/02/06 11:54:33;;;;;;;7.18;3.92;;;6.80;99.90;;;;;;9950098;28;20031;-65
2023/02/06 11:59:26;;;;;;;5.00;3.30;;;6.60;99.90;;;;;;9943222;28;20062;-65
2023/02/06 12:04:32;;;;;;;5.97;2.97;;;6.60;99.90;;;;;;9945076;28;20026;-65
2023/02/06 12:09:23;;;;;;;6.60;2.70;;;6.50;99.90;;;;;;9935312;28;20055;-66
2023/02/06 12:14:55;;;;;;;5.15;2.70;;;6.40;99.90;;;;;;9924397;28;20049;-67
2023/02/06 12:19:54;;;;;;;5.97;3.15;;;6.40;99.90;;;;;;9873006;29;20044;-65
2023/02/06 12:24:48;;;;;;;5.60;3.22;;;6.20;99.90;;;;;;9902764;28;20039;-66
2023/02/06 12:29:55;;;;;;;5.22;2.95;;;6.20;99.90;;;;;;9929987;28;20031;-64
2023/02/06 12:34:59;;;;;;;3.90;2.35;;;6.20;99.90;;;;;;9939837;28;20035;-64
2023/02/06 12:39:50;;;;;;;3.78;2.08;;;6.10;99.90;;;;;;9921595;28;20039;-64
2023/02/06 12:44:58;;;;;;;3.10;2.42;;;5.90;99.90;;;;;;9939877;28;20499;-68
2023/02/06 12:50:17;;;;;;;3.88;1.73;;;5.90;99.90;;;;;;9937674;28;20093;-65
2023/02/06 12:55:20;;;;;;;3.22;1.75;;;6.00;99.90;;;;;;9938875;28;20057;-64
2023/02/06 13:00:30;;;;;;;1.92;1.60;;;6.10;99.90;;;;;;9932207;28;20074;-66
2023/02/06 13:05:36;;;;;;;1.88;0.93;;;6.00;99.90;;;;;;9935857;28;20500;-66
2023/02/06 13:10:26;;;;;;;2.65;1.77;;;5.90;99.90;;;;;;9931784;28;20035;-65
2023/02/06 13:15:26;;;;;;;2.33;1.70;;;5.90;99.90;;;;;;9927982;28;20047;-63
2023/02/06 13:20:22;;;;;;;2.95;1.58;;;5.90;99.90;;;;;;9945052;28;20038;-63
2023/02/06 13:25:26;;;;;;;2.95;1.40;;;6.00;99.90;;;;;;9937501;28;20130;-62
2023/02/06 13:30:29;;;;;;;2.03;1.55;;;6.00;99.90;;;;;;9944160;28;20033;-63
2023/02/06 13:35:29;;;;;;;3.38;1.70;;;6.00;99.90;;;;;;9942536;28;20444;-62
2023/02/06 13:40:22;;;;;;;2.45;1.42;;;6.10;99.90;;;;;;9945585;28;20038;-67
2023/02/06 13:45:45;;;;;;;2.88;1.70;;;6.60;99.90;;;;;;9945325;28;20035;-66
2023/02/06 13:51:06;;;;;;;2.05;1.40;;;6.60;99.90;;;;;;9913279;28;20046;-66
2023/02/06 13:56:14;;;;;;;1.58;1.17;;;6.40;99.90;;;;;;9944213;28;20025;-66
2023/02/06 14:01:12;;;;;;;2.00;1.23;;;6.20;99.90;;;;;;9929151;28;20034;-67
2023/02/06 14:06:17;;;;;;;1.70;1.08;;;6.10;99.90;;;;;;9944376;28;20031;-66
2023/02/06 14:17:26;;;;;;;1.90;1.33;;;6.00;99.90;;;;;;9945052;28;20125;-66
2023/02/06 14:22:41;;;;;;;4.18;1.35;;;5.90;99.90;;;;;;9940785;28;20034;-65
2023/02/06 14:27:50;;;;;;;2.30;1.30;;;5.90;99.90;;;;;;9935874;28;20051;-64
2023/02/06 14:33:07;;;;;;;3.15;1.33;;;5.80;99.90;;;;;;9942517;28;20027;-61
2023/02/06 14:38:25;;;;;;;0.90;0.80;;;5.70;99.90;;;;;;9932912;28;20059;-65
2023/02/06 14:43:20;;;;;;;3.25;1.45;;;5.80;99.90;;;;;;9943733;28;20580;-69
2023/02/06 14:48:31;;;;;;;2.13;1.30;;;5.90;99.90;;;;;;9935235;28;20026;-67
2023/02/06 14:53:36;;;;;;;3.35;1.75;;;5.90;99.90;;;;;;9943003;28;20030;-64
2023/02/06 14:58:29;;;;;;;2.50;1.05;;;6.00;99.90;;;;;;9945873;28;20027;-65
2023/02/06 15:03:24;;;;;;;133.45;55.25;;;6.00;99.90;;;;;;9932171;28;20031;-68
2023/02/06 15:08:18;;;;;;;17.10;7.15;;;6.10;99.90;;;;;;9932476;28;20041;-63
2023/02/06 15:13:23;;;;;;;5.07;3.53;;;6.10;99.90;;;;;;9940564;28;20465;-62
2023/02/06 15:18:19;;;;;;;4.35;2.75;;;6.00;99.90;;;;;;9940573;28;20026;-62
2023/02/06 15:23:31;;;;;;;2.67;1.63;;;6.00;99.90;;;;;;9941330;28;20034;-62
2023/02/06 15:28:26;;;;;;;3.53;1.98;;;6.00;99.90;;;;;;9939362;28;20030;-64
2023/02/06 15:33:22;;;;;;;3.75;1.52;;;5.90;99.90;;;;;;9938786;28;20039;-63
2023/02/06 15:38:14;;;;;;;2.17;1.33;;;5.80;99.90;;;;;;9920551;28;20038;-63
2023/02/06 15:43:05;;;;;;;2.95;1.58;;;5.90;99.90;;;;;;9941912;28;20397;-64
2023/02/06 15:47:57;;;;;;;4.15;1.23;;;6.00;99.90;;;;;;9940650;28;20089;-63
2023/02/06 15:52:48;;;;;;;5.03;2.10;;;6.10;99.90;;;;;;9940010;28;20050;-66
2023/02/06 15:57:42;;;;;;;3.63;1.95;;;6.00;99.90;;;;;;9940740;28;20034;-67
2023/02/06 16:02:35;;;;;;;3.55;2.10;;;5.90;99.90;;;;;;9939360;28;20031;-69
2023/02/06 16:07:31;;;;;;;4.45;1.98;;;5.80;99.90;;;;;;9939799;28;20034;-66
2023/02/06 16:12:22;;;;;;;4.15;2.25;;;5.80;99.90;;;;;;9940611;28;20058;-66
2023/02/06 16:17:13;;;;;;;3.13;1.45;;;5.70;99.90;;;;;;9939404;28;20023;-65
2023/02/06 16:22:15;;;;;;;1.70;1.13;;;5.70;99.90;;;;;;9939061;28;20108;-68
2023/02/06 16:27:18;;;;;;;4.18;1.48;;;5.60;99.90;;;;;;9930188;28;20049;-66
2023/02/06 16:32:30;;;;;;;2.67;1.05;;;5.50;99.90;;;;;;9936157;28;20038;-63
2023/02/06 16:37:24;;;;;;;3.08;1.58;;;5.50;99.90;;;;;;9927253;28;20023;-64
2023/02/06 16:42:16;;;;;;;3.90;1.67;;;5.50;99.90;;;;;;9933729;28;20022;-66
2023/02/06 16:47:13;;;;;;;3.95;1.50;;;5.60;99.90;;;;;;9934320;28;20031;-65
2023/02/06 16:52:05;;;;;;;3.65;1.75;;;5.50;99.90;;;;;;9941912;28;20045;-64
2023/02/06 16:57:06;;;;;;;1.48;1.08;;;5.50;99.90;;;;;;9947100;28;20429;-65
2023/02/06 17:01:57;;;;;;;2.33;1.58;;;5.40;99.90;;;;;;9944738;28;20042;-65
2023/02/06 17:06:47;;;;;;;3.22;1.65;;;5.40;99.90;;;;;;9946652;28;20034;-62
2023/02/06 17:11:38;;;;;;;2.55;1.88;;;5.40;99.90;;;;;;9944080;28;20027;-63
2023/02/06 17:16:29;;;;;;;4.03;1.63;;;5.40;99.90;;;;;;9945450;28;20424;-65
2023/02/06 17:21:22;;;;;;;7.65;2.53;;;5.40;99.90;;;;;;9935978;28;20296;-62
2023/02/06 17:26:19;;;;;;;6.35;3.33;;;5.40;99.90;;;;;;9936022;28;20031;-64
2023/02/06 17:31:10;;;;;;;5.43;2.30;;;5.40;99.90;;;;;;9940543;28;20023;-62
2023/02/06 17:36:01;;;;;;;4.97;2.17;;;5.40;99.90;;;;;;9933776;28;20015;-63
2023/02/06 17:40:53;;;;;;;3.33;1.70;;;5.30;99.90;;;;;;9936585;28;20145;-65
2023/02/06 17:45:44;;;;;;;3.70;2.00;;;5.20;99.90;;;;;;9944938;28;20038;-63
2023/02/06 17:50:36;;;;;;;2.83;1.67;;;5.20;99.90;;;;;;9941908;28;20053;-65
2023/02/06 17:55:27;;;;;;;3.58;1.73;;;5.10;99.90;;;;;;9945053;28;20045;-63
2023/02/06 18:00:23;;;;;;;2.90;1.88;;;5.10;99.90;;;;;;9944929;28;20042;-64
2023/02/06 18:05:14;;;;;;;3.35;1.63;;;5.00;99.90;;;;;;9943706;28;20026;-63
2023/02/06 18:10:06;;;;;;;3.67;2.00;;;5.10;99.90;;;;;;9927951;28;20453;-62
2023/02/06 18:14:57;;;;;;;2.67;1.77;;;5.00;99.90;;;;;;9944825;28;20047;-67
2023/02/06 18:19:49;;;;;;;5.85;1.80;;;4.90;99.90;;;;;;9944490;28;20055;-67
2023/02/06 18:24:40;;;;;;;2.55;1.45;;;5.00;99.90;;;;;;9943282;28;20121;-63
2023/02/06 18:29:33;;;;;;;3.58;1.52;;;5.00;99.90;;;;;;9942994;28;20393;-64
2023/02/06 18:34:24;;;;;;;3.17;1.80;;;5.00;99.90;;;;;;9938214;28;20027;-65
2023/02/06 18:39:15;;;;;;;5.28;2.03;;;5.00;99.90;;;;;;9941040;28;20046;-66
2023/02/06 18:44:08;;;;;;;4.82;2.60;;;5.00;99.90;;;;;;9941929;28;20023;-66
2023/02/06 18:48:59;;;;;;;4.57;3.17;;;5.10;99.90;;;;;;9940795;28;20046;-63
2023/02/06 18:53:50;;;;;;;6.97;2.97;;;5.20;99.90;;;;;;9943237;28;20109;-64
2023/02/06 18:58:40;;;;;;;6.95;3.50;;;5.10;99.90;;;;;;9936078;28;20043;-64
2023/02/06 19:03:31;;;;;;;5.93;3.15;;;5.10;99.90;;;;;;9940059;28;20038;-64
2023/02/06 19:08:22;;;;;;;5.32;2.97;;;5.10;99.90;;;;;;9942901;28;20046;-64
2023/02/06 19:13:12;;;;;;;8.88;3.70;;;5.10;99.90;;;;;;9938663;28;20530;-64
2023/02/06 19:18:04;;;;;;;7.97;3.25;;;5.10;99.90;;;;;;9938946;28;20109;-64
2023/02/06 19:22:55;;;;;;;7.95;4.20;;;5.10;99.90;;;;;;9939635;28;20034;-64
2023/02/06 19:27:46;;;;;;;4.60;3.00;;;5.10;99.90;;;;;;9940328;28;20117;-63
2023/02/06 19:32:37;;;;;;;7.05;3.53;;;4.90;99.90;;;;;;9949353;28;20456;-66
2023/02/06 19:37:27;;;;;;;4.68;2.53;;;4.80;99.90;;;;;;9942434;28;20534;-64
2023/02/06 19:42:18;;;;;;;6.28;3.75;;;4.80;99.90;;;;;;9942554;28;20035;-65
2023/02/06 19:47:09;;;;;;;6.70;3.50;;;4.80;99.90;;;;;;9951052;28;20031;-65
2023/02/06 19:52:01;;;;;;;7.32;3.65;;;4.90;99.90;;;;;;9946255;28;20033;-65
2023/02/06 19:56:51;;;;;;;7.65;3.72;;;4.80;99.90;;;;;;9956795;28;20026;-64
2023/02/06 20:01:44;;;;;;;8.40;3.45;;;4.70;99.90;;;;;;9948592;28;20421;-64
2023/02/06 20:06:35;;;;;;;6.65;4.00;;;4.60;99.90;;;;;;9941213;28;20027;-66
2023/02/06 20:11:26;;;;;;;10.93;4.72;;;4.60;99.90;;;;;;9923995;28;20271;-64
2023/02/06 20:16:19;;;;;;;6.88;4.35;;;4.70;99.90;;;;;;9940852;28;20552;-66
2023/02/06 20:21:31;;;;;;;7.80;3.67;;;4.70;99.90;;;;;;9941731;28;20058;-66
2023/02/06 20:26:24;;;;;;;8.77;4.80;;;4.60;99.90;;;;;;9940335;28;20098;-66
2023/02/06 20:31:15;;;;;;;6.70;4.13;;;4.60;99.90;;;;;;9943508;28;20058;-64
2023/02/06 20:36:12;;;;;;;7.07;3.90;;;4.60;99.90;;;;;;9941233;28;20054;-66
2023/02/06 20:41:04;;;;;;;5.40;3.17;;;4.60;99.90;;;;;;9941176;28;20066;-65
2023/02/06 20:45:55;;;;;;;6.50;3.55;;;4.40;99.90;;;;;;9930621;28;20117;-65
2023/02/06 20:50:45;;;;;;;6.10;3.13;;;4.30;99.90;;;;;;9940957;28;20105;-65
2023/02/06 20:55:43;;;;;;;8.10;4.20;;;4.30;99.90;;;;;;9935087;28;20023;-65
2023/02/06 21:00:34;;;;;;;4.93;3.63;;;4.30;99.90;;;;;;9947030;28;20100;-64
2023/02/06 21:05:24;;;;;;;5.05;3.70;;;4.30;99.90;;;;;;9937488;28;20462;-63
2023/02/06 21:10:15;;;;;;;7.63;3.00;;;4.40;99.90;;;;;;9939227;28;20038;-69
2023/02/06 21:15:09;;;;;;;6.15;3.53;;;4.30;99.90;;;;;;9937856;28;20058;-68
2023/02/06 21:19:59;;;;;;;6.80;3.53;;;4.20;99.90;;;;;;9933862;28;20047;-72
2023/02/06 21:24:50;;;;;;;4.95;3.22;;;4.10;99.90;;;;;;9940725;28;20417;-72
2023/02/06 21:29:41;;;;;;;7.57;3.70;;;4.10;99.90;;;;;;9945459;28;20035;-73
2023/02/06 21:34:32;;;;;;;4.78;3.25;;;4.20;99.90;;;;;;9936506;28;20035;-70
2023/02/06 21:39:25;;;;;;;8.63;3.85;;;4.20;99.90;;;;;;9940982;28;20057;-65
2023/02/06 21:44:16;;;;;;;8.27;3.30;;;4.20;99.90;;;;;;9926452;28;20037;-71
2023/02/06 21:49:10;;;;;;;4.82;3.10;;;4.10;99.90;;;;;;9943628;28;20493;-69
2023/02/06 21:54:01;;;;;;;7.55;3.35;;;4.10;99.90;;;;;;9942747;28;20050;-68
2023/02/06 21:58:51;;;;;;;4.63;2.70;;;4.10;99.90;;;;;;9940150;28;20065;-65
2023/02/06 22:03:44;;;;;;;4.78;3.00;;;4.00;99.90;;;;;;9921487;28;20400;-67
2023/02/06 22:08:35;;;;;;;6.32;3.22;;;3.90;99.90;;;;;;9938391;28;20113;-69
2023/02/06 22:13:25;;;;;;;57.70;28.20;;;3.80;99.90;;;;;;9941665;28;20058;-64
2023/02/06 22:18:16;;;;;;;116.25;53.45;;;4.20;99.90;;;;;;9941543;28;20038;-66
2023/02/06 22:23:07;;;;;;;22.40;12.38;;;4.40;99.90;;;;;;9938634;28;20031;-69
2023/02/06 22:27:58;;;;;;;10.10;5.28;;;4.20;99.90;;;;;;9920649;28;20058;-68
2023/02/06 22:32:48;;;;;;;6.03;3.25;;;3.90;99.90;;;;;;9941897;28;20039;-71
2023/02/06 22:37:39;;;;;;;4.93;2.65;;;3.80;99.90;;;;;;9942377;28;20031;-72
2023/02/06 22:42:29;;;;;;;4.40;2.65;;;3.70;99.90;;;;;;9941284;28;20031;-68
2023/02/06 22:47:20;;;;;;;3.38;2.00;;;3.70;99.90;;;;;;9920240;28;20027;-66
2023/02/06 22:57:20;;;;;;;4.30;1.90;;;3.70;99.90;;;;;;9941676;28;20038;-72
2023/02/06 23:02:11;;;;;;;1.90;1.38;;;3.60;99.90;;;;;;9939927;28;20085;-71
2023/02/06 23:07:01;;;;;;;2.58;1.95;;;3.60;99.90;;;;;;9941115;28;20030;-70
2023/02/06 23:11:53;;;;;;;3.63;2.05;;;3.60;99.90;;;;;;9935876;28;20160;-72
2023/02/06 23:16:45;;;;;;;3.08;1.60;;;3.60;99.90;;;;;;9939989;28;20097;-71
2023/02/06 23:21:38;;;;;;;5.13;1.92;;;3.50;99.90;;;;;;9939793;28;20114;-72
2023/02/06 23:26:29;;;;;;;2.97;1.85;;;3.50;99.90;;;;;;9936104;28;20453;-68
2023/02/06 23:31:20;;;;;;;3.10;1.90;;;3.40;99.90;;;;;;9925504;28;20556;-70
2023/02/06 23:36:16;;;;;;;3.88;1.88;;;3.50;99.90;;;;;;9940171;28;20029;-70
2023/02/06 23:41:12;;;;;;;1.70;1.55;;;3.40;99.90;;;;;;9938481;28;20042;-72
2023/02/06 23:46:05;;;;;;;4.90;2.10;;;3.50;99.90;;;;;;9939358;28;20089;-69
2023/02/06 23:50:56;;;;;;;2.88;2.05;;;3.50;99.90;;;;;;9938110;28;20061;-73
2023/02/06 23:55:46;;;;;;;2.08;1.48;;;3.50;99.90;;;;;;9954803;28;20042;-70
